createdAt,value
2022-12-09T00:00:27.349Z,39.70
2022-12-09T00:05:29.547Z,34.10
2022-12-09T00:10:31.702Z,39.73
2022-12-09T00:15:34.030Z,37.80
2022-12-09T00:20:36.729Z,38.87
2022-12-09T00:25:39.059Z,38.42
2022-12-09T00:30:45.172Z,40.65
2022-12-09T00:35:47.392Z,39.73
2022-12-09T00:40:49.461Z,41.37
2022-12-09T00:45:51.642Z,39.40
2022-12-09T00:50:54.043Z,40.38
2022-12-09T00:55:56.393Z,41.03
2022-12-09T01:00:58.906Z,37.77
2022-12-09T01:06:01.202Z,39.33
2022-12-09T01:11:12.872Z,40.67
2022-12-09T01:16:20.567Z,42.00
2022-12-09T01:21:25.171Z,38.35
2022-12-09T01:26:28.045Z,39.63
2022-12-09T01:31:30.319Z,41.47
2022-12-09T01:36:32.576Z,42.63
2022-12-09T01:41:35.165Z,38.42
2022-12-09T01:46:38.184Z,39.97
2022-12-09T01:51:42.536Z,40.47
2022-12-09T01:56:44.578Z,42.38
2022-12-09T02:01:52.772Z,40.57
2022-12-09T02:06:57.963Z,40.85
2022-12-09T02:12:09.119Z,41.30
2022-12-09T02:17:17.250Z,41.53
2022-12-09T02:22:27.290Z,41.13
2022-12-09T02:27:49.160Z,44.53
2022-12-09T02:33:06.511Z,42.85
2022-12-09T02:38:28.838Z,43.17
2022-12-09T02:43:43.631Z,40.03
2022-12-09T02:48:56.107Z,42.05
2022-12-09T02:54:09.551Z,43.57
2022-12-09T02:59:11.712Z,44.53
2022-12-09T03:04:21.854Z,40.08
2022-12-09T03:09:33.053Z,43.90
2022-12-09T03:14:43.864Z,40.40
2022-12-09T03:19:52.644Z,43.27
2022-12-09T03:25:01.153Z,41.58
2022-12-09T03:30:06.194Z,40.78
2022-12-09T03:35:16.149Z,41.30
2022-12-09T03:40:24.316Z,40.03
2022-12-09T03:45:27.736Z,39.30
2022-12-09T03:50:40.736Z,40.53
2022-12-09T03:56:05.635Z,44.30
2022-12-09T04:01:08.210Z,44.63
2022-12-09T04:06:10.849Z,45.45
2022-12-09T04:11:13.107Z,44.73
2022-12-09T04:16:15.600Z,42.78
2022-12-09T04:21:17.809Z,48.60
2022-12-09T04:26:22.534Z,44.63
2022-12-09T04:31:25.081Z,47.00
2022-12-09T04:36:27.327Z,51.00
2022-12-09T04:41:29.680Z,48.72
2022-12-09T04:46:32.394Z,49.55
2022-12-09T04:51:39.612Z,45.87
2022-12-09T04:56:43.084Z,50.47
2022-12-09T05:01:45.741Z,49.13
2022-12-09T05:06:48.089Z,49.22
2022-12-09T05:11:52.501Z,48.97
2022-12-09T05:16:54.842Z,43.87
2022-12-09T05:21:57.458Z,44.90
2022-12-09T05:27:00.460Z,47.23
2022-12-09T05:32:03.004Z,48.47
2022-12-09T05:37:05.966Z,42.97
2022-12-09T05:42:08.782Z,46.57
2022-12-09T05:47:11.354Z,45.80
2022-12-09T05:52:14.539Z,48.40
2022-12-09T05:57:17.208Z,47.72
2022-12-09T06:02:19.711Z,45.97
2022-12-09T06:07:22.434Z,49.77
2022-12-09T06:12:25.086Z,46.17
2022-12-09T06:17:27.745Z,52.13
2022-12-09T06:22:30.069Z,46.80
2022-12-09T06:27:33.274Z,47.22
2022-12-09T06:32:35.910Z,47.13
2022-12-09T06:37:38.541Z,49.60
2022-12-09T06:42:40.735Z,47.40
2022-12-09T06:47:43.152Z,52.78
2022-12-09T06:52:46.049Z,56.58
2022-12-09T06:57:48.604Z,50.33
2022-12-09T07:02:51.091Z,52.13
2022-12-09T07:07:54.064Z,61.83
2022-12-09T07:12:56.856Z,54.35
2022-12-09T07:17:59.321Z,58.17
2022-12-09T07:23:01.754Z,58.67
2022-12-09T07:28:04.882Z,56.95
2022-12-09T07:33:07.187Z,58.07
2022-12-09T07:38:15.848Z,56.03
2022-12-09T07:43:18.814Z,57.90
2022-12-09T07:48:20.974Z,54.90
2022-12-09T07:53:23.659Z,55.35
2022-12-09T07:58:25.903Z,58.63
2022-12-09T08:03:28.330Z,54.15
2022-12-09T08:08:32.076Z,55.58
2022-12-09T08:13:35.286Z,52.47
2022-12-09T08:18:37.605Z,58.47
2022-12-09T08:23:40.228Z,50.33
2022-12-09T08:28:43.076Z,50.58
2022-12-09T08:33:45.933Z,52.72
2022-12-09T08:38:48.738Z,50.00
2022-12-09T08:43:51.309Z,52.55
2022-12-09T08:48:53.830Z,49.50
2022-12-09T08:53:58.694Z,43.92
2022-12-09T08:59:01.354Z,47.25
2022-12-09T09:04:10.112Z,54.60
2022-12-09T09:09:14.679Z,46.55
2022-12-09T09:14:17.644Z,44.67
2022-12-09T09:19:22.966Z,44.97
2022-12-09T09:24:26.175Z,50.35
2022-12-09T09:29:29.494Z,42.53
2022-12-09T09:34:32.034Z,43.65
2022-12-09T09:39:34.766Z,43.43
2022-12-09T09:44:43.275Z,40.15
2022-12-09T09:49:57.916Z,42.83
2022-12-09T09:55:13.196Z,45.63
2022-12-09T10:00:27.055Z,42.62
2022-12-09T10:05:37.461Z,45.43
2022-12-09T10:10:49.424Z,42.45
2022-12-09T10:16:17.949Z,39.08
2022-12-09T10:21:21.724Z,37.27
2022-12-09T10:26:27.454Z,37.75
2022-12-09T10:31:30.600Z,39.13
2022-12-09T10:36:36.030Z,40.72
2022-12-09T10:42:00.715Z,40.15
2022-12-09T10:47:06.174Z,35.90
2022-12-09T10:52:08.761Z,34.88
2022-12-09T10:57:16.491Z,36.87
2022-12-09T11:02:21.334Z,32.88
2022-12-09T11:07:28.216Z,35.00
2022-12-09T11:12:40.489Z,29.73
2022-12-09T11:17:59.859Z,31.67
2022-12-09T11:23:14.342Z,29.77
2022-12-09T11:28:16.706Z,31.23
2022-12-09T11:33:28.111Z,33.08
2022-12-09T11:38:35.247Z,36.97
2022-12-09T11:43:55.962Z,31.23
2022-12-09T11:49:27.848Z,41.13
2022-12-09T11:54:44.318Z,39.63
2022-12-09T11:59:52.087Z,38.50
2022-12-09T12:05:09.148Z,43.17
2022-12-09T12:10:34.523Z,45.63
2022-12-09T12:15:46.265Z,34.03
2022-12-09T12:20:57.294Z,33.47
2022-12-09T12:26:26.401Z,30.45
2022-12-09T12:31:53.569Z,26.97
2022-12-09T12:37:29.762Z,26.65
2022-12-09T12:43:04.226Z,29.50
2022-12-09T12:48:16.257Z,31.98
2022-12-09T12:54:04.941Z,30.90
2022-12-09T12:59:31.251Z,28.30
2022-12-09T13:04:58.360Z,26.70
2022-12-09T13:10:32.970Z,27.70
2022-12-09T13:15:56.854Z,31.73
2022-12-09T13:21:03.323Z,31.85
2022-12-09T13:26:27.335Z,30.60
2022-12-09T13:31:32.294Z,30.10
2022-12-09T13:36:46.348Z,31.60
2022-12-09T13:42:07.587Z,29.65
2022-12-09T13:47:21.983Z,32.47
2022-12-09T13:52:49.537Z,34.33
2022-12-09T13:58:22.537Z,30.27
2022-12-09T14:03:32.292Z,30.83
2022-12-09T14:08:45.715Z,29.35
2022-12-09T14:13:48.405Z,29.52
2022-12-09T14:18:50.626Z,30.33
2022-12-09T14:24:16.925Z,30.40
2022-12-09T14:29:45.001Z,34.43
2022-12-09T14:34:58.613Z,31.92
2022-12-09T14:40:25.240Z,29.25
2022-12-09T14:45:49.431Z,30.50
2022-12-09T14:51:23.879Z,29.85
2022-12-09T14:56:27.522Z,31.40
2022-12-09T15:01:29.837Z,30.17
2022-12-09T15:06:32.164Z,30.42
2022-12-09T15:11:35.912Z,28.93
2022-12-09T15:16:38.118Z,31.75
2022-12-09T15:21:40.554Z,27.60
2022-12-09T15:26:43.338Z,32.03
2022-12-09T15:31:50.984Z,28.85
2022-12-09T15:36:58.406Z,27.43
2022-12-09T15:42:13.870Z,34.30
2022-12-09T15:47:21.542Z,31.67
2022-12-09T15:52:31.390Z,31.92
2022-12-09T15:57:35.731Z,35.38
2022-12-09T16:02:40.319Z,32.27
2022-12-09T16:07:54.686Z,33.88
2022-12-09T16:13:12.090Z,35.23
2022-12-09T16:18:17.854Z,31.42
2022-12-09T16:23:23.817Z,30.08
2022-12-09T16:28:28.892Z,30.40
2022-12-09T16:33:37.013Z,33.22
2022-12-09T16:38:39.337Z,32.63
2022-12-09T16:43:55.131Z,30.37
2022-12-09T16:49:04.675Z,27.55
2022-12-09T16:54:19.749Z,30.73
2022-12-09T16:59:22.898Z,37.30
2022-12-09T17:04:29.266Z,36.60
2022-12-09T17:09:31.452Z,34.53
2022-12-09T17:14:33.697Z,32.38
2022-12-09T17:19:35.858Z,34.07
2022-12-09T17:24:38.535Z,32.75
2022-12-09T17:29:40.853Z,34.17
2022-12-09T17:34:43.052Z,36.83
2022-12-09T17:39:45.157Z,33.58
2022-12-09T17:44:47.319Z,35.20
2022-12-09T17:49:49.453Z,34.65
2022-12-09T17:54:51.620Z,33.23
2022-12-09T17:59:53.694Z,31.37
2022-12-09T18:04:55.722Z,30.62
2022-12-09T18:09:57.875Z,32.07
2022-12-09T18:15:00.162Z,25.77
2022-12-09T18:20:02.465Z,32.20
2022-12-09T18:25:05.232Z,28.87
2022-12-09T18:30:08.348Z,28.92
2022-12-09T18:35:10.868Z,27.30
2022-12-09T18:41:06.658Z,24.87
2022-12-09T18:46:16.012Z,26.43
2022-12-09T18:51:20.848Z,26.02
2022-12-09T18:56:23.043Z,24.15
2022-12-09T19:01:30.695Z,26.57
2022-12-09T19:06:35.681Z,29.12
2022-12-09T19:11:39.695Z,28.17
2022-12-09T19:16:42.834Z,24.92
2022-12-09T19:21:45.996Z,22.52
2022-12-09T19:26:48.528Z,25.67
2022-12-09T19:31:52.423Z,29.83
2022-12-09T19:36:56.890Z,27.00
2022-12-09T19:41:59.215Z,25.00
2022-12-09T19:47:01.368Z,25.83
2022-12-09T19:52:04.011Z,25.77
2022-12-09T19:57:06.582Z,25.95
2022-12-09T20:02:12.052Z,22.27
2022-12-09T20:07:14.313Z,24.73
2022-12-09T20:12:16.787Z,21.62
2022-12-09T20:17:19.035Z,23.40
2022-12-09T20:22:21.157Z,21.10
2022-12-09T20:27:25.216Z,21.07
2022-12-09T20:32:33.101Z,19.75
2022-12-09T20:37:36.199Z,19.98
2022-12-09T20:42:38.391Z,19.50
2022-12-09T20:47:40.504Z,26.40
2022-12-09T20:52:42.695Z,20.27
2022-12-09T20:57:45.023Z,23.80
2022-12-09T21:02:47.362Z,18.55
2022-12-09T21:07:49.653Z,18.30
2022-12-09T21:12:53.902Z,20.73
2022-12-09T21:17:56.262Z,20.30
2022-12-09T21:23:31.893Z,16.25
2022-12-09T21:28:20.732Z,19.00
2022-12-09T21:33:23.716Z,16.63
2022-12-09T21:38:30.423Z,19.00
2022-12-09T21:43:33.905Z,19.30
2022-12-09T21:48:36.097Z,20.77
2022-12-09T21:53:39.891Z,19.87
2022-12-09T21:58:43.244Z,21.57
2022-12-09T22:03:46.332Z,24.23
2022-12-09T22:08:48.440Z,20.40
2022-12-09T22:13:51.336Z,18.73
2022-12-09T22:18:55.277Z,17.75
2022-12-09T22:24:00.789Z,19.47
2022-12-09T22:29:05.098Z,20.10
2022-12-09T22:34:13.545Z,18.27
2022-12-09T22:39:18.292Z,19.25
2022-12-09T22:44:20.777Z,18.37
2022-12-09T22:49:22.851Z,15.23
2022-12-09T22:54:24.985Z,16.42
2022-12-09T22:59:27.470Z,16.83
2022-12-09T23:04:29.573Z,14.27
2022-12-09T23:09:31.670Z,14.93
2022-12-09T23:14:33.783Z,16.97
2022-12-09T23:19:35.922Z,18.00
2022-12-09T23:24:38.129Z,17.73
2022-12-09T23:29:40.437Z,17.65
2022-12-09T23:34:42.559Z,16.27
2022-12-09T23:39:44.735Z,15.57
2022-12-09T23:44:46.845Z,16.58
2022-12-09T23:49:49.001Z,16.10
2022-12-09T23:54:51.284Z,15.25
2022-12-09T23:59:53.700Z,18.15
